sensor_id;sensor_type;location;lat;lon;timestamp;temperature;humidity
52481;DHT22;38393;52.404;13.532;2024-01-30T00:01:05;0.60;99.90
52481;DHT22;38393;52.404;13.532;2024-01-30T00:03:30;0.60;99.90
52481;DHT22;38393;52.404;13.532;2024-01-30T00:05:56;0.60;99.90
52481;DHT22;38393;52.404;13.532;2024-01-30T00:08:21;0.60;99.90
52481;DHT22;38393;52.404;13.532;2024-01-30T00:10:46;0.40;99.90
52481;DHT22;38393;52.404;13.532;2024-01-30T00:13:12;0.50;99.90
52481;DHT22;38393;52.404;13.532;2024-01-30T00:15:39;0.50;99.90
52481;DHT22;38393;52.404;13.532;2024-01-30T00:18:04;0.50;99.90
52481;DHT22;38393;52.404;13.532;2024-01-30T00:20:30;0.40;99.90
52481;DHT22;38393;52.404;13.532;2024-01-30T00:22:55;0.40;99.90
52481;DHT22;38393;52.404;13.532;2024-01-30T00:25:21;0.40;99.90
52481;DHT22;38393;52.404;13.532;2024-01-30T00:27:46;0.20;99.90
52481;DHT22;38393;52.404;13.532;2024-01-30T00:30:12;0.30;99.90
52481;DHT22;38393;52.404;13.532;2024-01-30T00:32:38;0.30;99.90
52481;DHT22;38393;52.404;13.532;2024-01-30T00:35:03;0.20;99.90
52481;DHT22;38393;52.404;13.532;2024-01-30T00:37:30;0.20;99.90
52481;DHT22;38393;52.404;13.532;2024-01-30T00:39:57;0.20;99.90
52481;DHT22;38393;52.404;13.532;2024-01-30T00:42:22;0.30;99.90
52481;DHT22;38393;52.404;13.532;2024-01-30T00:44:49;0.30;99.90
52481;DHT22;38393;52.404;13.532;2024-01-30T00:47:14;0.30;99.90
52481;DHT22;38393;52.404;13.532;2024-01-30T00:49:40;0.50;99.90
52481;DHT22;38393;52.404;13.532;2024-01-30T00:52:05;0.40;99.90
52481;DHT22;38393;52.404;13.532;2024-01-30T00:54:31;0.30;99.90
52481;DHT22;38393;52.404;13.532;2024-01-30T00:56:56;0.30;99.90
52481;DHT22;38393;52.404;13.532;2024-01-30T00:59:22;0.30;99.90
52481;DHT22;38393;52.404;13.532;2024-01-30T01:01:47;0.30;99.90
52481;DHT22;38393;52.404;13.532;2024-01-30T01:04:13;0.30;99.90
52481;DHT22;38393;52.404;13.532;2024-01-30T01:06:38;0.40;99.90
52481;DHT22;38393;52.404;13.532;2024-01-30T01:09:04;0.40;99.90
52481;DHT22;38393;52.404;13.532;2024-01-30T01:11:29;0.20;99.90
52481;DHT22;38393;52.404;13.532;2024-01-30T01:13:55;0.30;99.90
52481;DHT22;38393;52.404;13.532;2024-01-30T01:16:20;0.30;99.90
52481;DHT22;38393;52.404;13.532;2024-01-30T01:18:45;0.20;99.90
52481;DHT22;38393;52.404;13.532;2024-01-30T01:21:11;0.00;99.90
52481;DHT22;38393;52.404;13.532;2024-01-30T01:23:36;0.20;99.90
52481;DHT22;38393;52.404;13.532;2024-01-30T01:26:02;0.10;99.90
52481;DHT22;38393;52.404;13.532;2024-01-30T01:28:27;0.20;99.90
52481;DHT22;38393;52.404;13.532;2024-01-30T01:30:53;0.20;99.90
52481;DHT22;38393;52.404;13.532;2024-01-30T01:33:18;0.20;99.90
52481;DHT22;38393;52.404;13.532;2024-01-30T01:35:44;0.20;99.90
52481;DHT22;38393;52.404;13.532;2024-01-30T01:38:10;0.20;99.90
52481;DHT22;38393;52.404;13.532;2024-01-30T01:40:35;0.20;99.90
52481;DHT22;38393;52.404;13.532;2024-01-30T01:43:03;0.10;99.90
52481;DHT22;38393;52.404;13.532;2024-01-30T01:45:29;0.20;99.90
52481;DHT22;38393;52.404;13.532;2024-01-30T01:47:54;0.10;99.90
52481;DHT22;38393;52.404;13.532;2024-01-30T01:50:21;0.20;99.90
52481;DHT22;38393;52.404;13.532;2024-01-30T01:52:51;0.20;99.90
52481;DHT22;38393;52.404;13.532;2024-01-30T01:55:19;0.30;99.90
52481;DHT22;38393;52.404;13.532;2024-01-30T01:57:50;0.40;99.90
52481;DHT22;38393;52.404;13.532;2024-01-30T02:00:16;0.40;99.90
52481;DHT22;38393;52.404;13.532;2024-01-30T02:02:43;0.40;99.90
52481;DHT22;38393;52.404;13.532;2024-01-30T02:05:10;0.40;99.90
52481;DHT22;38393;52.404;13.532;2024-01-30T02:07:36;0.60;99.90
52481;DHT22;38393;52.404;13.532;2024-01-30T02:10:02;0.50;99.90
52481;DHT22;38393;52.404;13.532;2024-01-30T02:12:29;0.40;99.90
52481;DHT22;38393;52.404;13.532;2024-01-30T02:14:55;0.40;99.90
52481;DHT22;38393;52.404;13.532;2024-01-30T02:17:20;0.40;99.90
52481;DHT22;38393;52.404;13.532;2024-01-30T02:19:46;0.30;99.90
52481;DHT22;38393;52.404;13.532;2024-01-30T02:22:11;0.30;99.90
52481;DHT22;38393;52.404;13.532;2024-01-30T02:24:38;0.30;99.90
52481;DHT22;38393;52.404;13.532;2024-01-30T02:27:03;0.30;99.90
52481;DHT22;38393;52.404;13.532;2024-01-30T02:29:29;0.30;99.90
52481;DHT22;38393;52.404;13.532;2024-01-30T02:31:54;0.20;99.90
52481;DHT22;38393;52.404;13.532;2024-01-30T02:34:20;0.50;99.90
52481;DHT22;38393;52.404;13.532;2024-01-30T02:36:46;0.40;99.90
52481;DHT22;38393;52.404;13.532;2024-01-30T02:39:11;0.40;99.90
52481;DHT22;38393;52.404;13.532;2024-01-30T02:41:37;0.30;99.90
52481;DHT22;38393;52.404;13.532;2024-01-30T02:44:06;0.40;99.90
52481;DHT22;38393;52.404;13.532;2024-01-30T02:46:31;0.30;99.90
52481;DHT22;38393;52.404;13.532;2024-01-30T02:48:56;0.50;99.90
52481;DHT22;38393;52.404;13.532;2024-01-30T02:51:22;0.40;99.90
52481;DHT22;38393;52.404;13.532;2024-01-30T02:53:47;0.50;99.90
52481;DHT22;38393;52.404;13.532;2024-01-30T02:56:13;0.50;99.90
52481;DHT22;38393;52.404;13.532;2024-01-30T02:58:39;0.40;99.90
52481;DHT22;38393;52.404;13.532;2024-01-30T03:01:05;0.40;99.90
52481;DHT22;38393;52.404;13.532;2024-01-30T03:03:31;0.40;99.90
52481;DHT22;38393;52.404;13.532;2024-01-30T03:05:56;0.40;99.90
52481;DHT22;38393;52.404;13.532;2024-01-30T03:08:22;0.30;99.90
52481;DHT22;38393;52.404;13.532;2024-01-30T03:10:48;0.30;99.90
52481;DHT22;38393;52.404;13.532;2024-01-30T03:13:13;0.40;99.90
52481;DHT22;38393;52.404;13.532;2024-01-30T03:15:39;0.30;99.90
52481;DHT22;38393;52.404;13.532;2024-01-30T03:18:05;0.30;99.90
52481;DHT22;38393;52.404;13.532;2024-01-30T03:20:30;0.30;99.90
52481;DHT22;38393;52.404;13.532;2024-01-30T03:22:57;0.20;99.90
52481;DHT22;38393;52.404;13.532;2024-01-30T03:25:24;0.20;99.90
52481;DHT22;38393;52.404;13.532;2024-01-30T03:27:50;0.30;99.90
52481;DHT22;38393;52.404;13.532;2024-01-30T03:30:15;0.10;99.90
52481;DHT22;38393;52.404;13.532;2024-01-30T03:32:41;0.20;99.90
52481;DHT22;38393;52.404;13.532;2024-01-30T03:35:06;0.30;99.90
52481;DHT22;38393;52.404;13.532;2024-01-30T03:37:32;0.30;99.90
52481;DHT22;38393;52.404;13.532;2024-01-30T03:39:57;0.40;99.90
52481;DHT22;38393;52.404;13.532;2024-01-30T03:42:23;0.40;99.90
52481;DHT22;38393;52.404;13.532;2024-01-30T03:44:48;0.30;99.90
52481;DHT22;38393;52.404;13.532;2024-01-30T03:47:17;0.40;99.90
52481;DHT22;38393;52.404;13.532;2024-01-30T03:49:42;0.30;99.90
52481;DHT22;38393;52.404;13.532;2024-01-30T03:52:08;0.30;99.90
52481;DHT22;38393;52.404;13.532;2024-01-30T03:54:33;0.30;99.90
52481;DHT22;38393;52.404;13.532;2024-01-30T03:56:59;0.10;99.90
52481;DHT22;38393;52.404;13.532;2024-01-30T03:59:24;0.20;99.90
52481;DHT22;38393;52.404;13.532;2024-01-30T04:01:50;0.20;99.90
52481;DHT22;38393;52.404;13.532;2024-01-30T04:04:20;0.20;99.90
52481;DHT22;38393;52.404;13.532;2024-01-30T04:06:46;0.20;99.90
52481;DHT22;38393;52.404;13.532;2024-01-30T04:09:12;0.20;99.90
52481;DHT22;38393;52.404;13.532;2024-01-30T04:11:39;0.20;99.90
52481;DHT22;38393;52.404;13.532;2024-01-30T04:14:04;0.20;99.90
52481;DHT22;38393;52.404;13.532;2024-01-30T04:16:30;0.20;99.90
52481;DHT22;38393;52.404;13.532;2024-01-30T04:18:56;0.20;99.90
52481;DHT22;38393;52.404;13.532;2024-01-30T04:21:21;0.10;99.90
52481;DHT22;38393;52.404;13.532;2024-01-30T04:23:47;0.30;99.90
52481;DHT22;38393;52.404;13.532;2024-01-30T04:26:13;0.20;99.90
52481;DHT22;38393;52.404;13.532;2024-01-30T04:28:41;0.20;99.90
52481;DHT22;38393;52.404;13.532;2024-01-30T04:31:06;0.20;99.90
52481;DHT22;38393;52.404;13.532;2024-01-30T04:33:32;0.20;99.90
52481;DHT22;38393;52.404;13.532;2024-01-30T04:35:57;0.10;99.90
52481;DHT22;38393;52.404;13.532;2024-01-30T04:38:23;0.10;99.90
52481;DHT22;38393;52.404;13.532;2024-01-30T04:40:48;0.20;99.90
52481;DHT22;38393;52.404;13.532;2024-01-30T04:43:14;0.20;99.90
52481;DHT22;38393;52.404;13.532;2024-01-30T04:45:41;0.20;99.90
52481;DHT22;38393;52.404;13.532;2024-01-30T04:48:06;0.20;99.90
52481;DHT22;38393;52.404;13.532;2024-01-30T04:50:32;0.20;99.90
52481;DHT22;38393;52.404;13.532;2024-01-30T04:52:57;0.10;99.90
52481;DHT22;38393;52.404;13.532;2024-01-30T04:55:23;0.10;99.90
52481;DHT22;38393;52.404;13.532;2024-01-30T04:57:48;0.10;99.90
52481;DHT22;38393;52.404;13.532;2024-01-30T05:00:14;0.20;99.90
52481;DHT22;38393;52.404;13.532;2024-01-30T05:02:40;0.00;99.90
52481;DHT22;38393;52.404;13.532;2024-01-30T05:05:06;0.00;99.90
52481;DHT22;38393;52.404;13.532;2024-01-30T05:07:31;0.00;99.90
52481;DHT22;38393;52.404;13.532;2024-01-30T05:09:56;0.00;99.90
52481;DHT22;38393;52.404;13.532;2024-01-30T05:12:22;-0.10;99.90
52481;DHT22;38393;52.404;13.532;2024-01-30T05:14:47;0.00;99.90
52481;DHT22;38393;52.404;13.532;2024-01-30T05:17:13;-0.10;99.90
52481;DHT22;38393;52.404;13.532;2024-01-30T05:19:39;-0.10;99.90
52481;DHT22;38393;52.404;13.532;2024-01-30T05:22:04;0.00;99.90
52481;DHT22;38393;52.404;13.532;2024-01-30T05:24:30;0.00;99.90
52481;DHT22;38393;52.404;13.532;2024-01-30T05:26:55;0.10;99.90
52481;DHT22;38393;52.404;13.532;2024-01-30T05:29:20;0.10;99.90
52481;DHT22;38393;52.404;13.532;2024-01-30T05:31:46;0.10;99.90
52481;DHT22;38393;52.404;13.532;2024-01-30T05:34:11;0.10;99.90
52481;DHT22;38393;52.404;13.532;2024-01-30T05:36:37;0.20;99.90
52481;DHT22;38393;52.404;13.532;2024-01-30T05:39:02;0.20;99.90
52481;DHT22;38393;52.404;13.532;2024-01-30T05:41:28;0.10;99.90
52481;DHT22;38393;52.404;13.532;2024-01-30T05:43:53;0.20;99.90
52481;DHT22;38393;52.404;13.532;2024-01-30T05:46:19;0.20;99.90
52481;DHT22;38393;52.404;13.532;2024-01-30T05:48:44;0.10;99.90
52481;DHT22;38393;52.404;13.532;2024-01-30T05:51:10;0.10;99.90
52481;DHT22;38393;52.404;13.532;2024-01-30T05:53:35;0.10;99.90
52481;DHT22;38393;52.404;13.532;2024-01-30T05:56:04;0.20;99.90
52481;DHT22;38393;52.404;13.532;2024-01-30T05:58:30;0.10;99.90
52481;DHT22;38393;52.404;13.532;2024-01-30T06:00:56;0.10;99.90
52481;DHT22;38393;52.404;13.532;2024-01-30T06:03:22;0.10;99.90
52481;DHT22;38393;52.404;13.532;2024-01-30T06:05:48;0.20;99.90
52481;DHT22;38393;52.404;13.532;2024-01-30T06:08:13;0.20;99.90
52481;DHT22;38393;52.404;13.532;2024-01-30T06:10:39;0.10;99.90
52481;DHT22;38393;52.404;13.532;2024-01-30T06:13:05;0.10;99.90
52481;DHT22;38393;52.404;13.532;2024-01-30T06:15:30;0.00;99.90
52481;DHT22;38393;52.404;13.532;2024-01-30T06:17:58;0.10;99.90
52481;DHT22;38393;52.404;13.532;2024-01-30T06:20:24;0.10;99.90
52481;DHT22;38393;52.404;13.532;2024-01-30T06:22:49;0.10;99.90
52481;DHT22;38393;52.404;13.532;2024-01-30T06:25:15;0.20;99.90
52481;DHT22;38393;52.404;13.532;2024-01-30T06:27:42;0.20;99.90
52481;DHT22;38393;52.404;13.532;2024-01-30T06:30:07;0.30;99.90
52481;DHT22;38393;52.404;13.532;2024-01-30T06:32:33;0.30;99.90
52481;DHT22;38393;52.404;13.532;2024-01-30T06:35:00;0.30;99.90
52481;DHT22;38393;52.404;13.532;2024-01-30T06:37:25;0.30;99.90
52481;DHT22;38393;52.404;13.532;2024-01-30T06:39:51;0.30;99.90
52481;DHT22;38393;52.404;13.532;2024-01-30T06:42:17;0.20;99.90
52481;DHT22;38393;52.404;13.532;2024-01-30T06:44:43;0.30;99.90
52481;DHT22;38393;52.404;13.532;2024-01-30T06:47:08;0.10;99.90
52481;DHT22;38393;52.404;13.532;2024-01-30T06:49:34;0.30;99.90
52481;DHT22;38393;52.404;13.532;2024-01-30T06:52:00;0.30;99.90
52481;DHT22;38393;52.404;13.532;2024-01-30T06:54:25;0.30;99.90
52481;DHT22;38393;52.404;13.532;2024-01-30T06:56:51;0.30;99.90
52481;DHT22;38393;52.404;13.532;2024-01-30T06:59:16;0.40;99.90
52481;DHT22;38393;52.404;13.532;2024-01-30T07:01:42;0.40;99.90
52481;DHT22;38393;52.404;13.532;2024-01-30T07:04:07;0.40;99.90
52481;DHT22;38393;52.404;13.532;2024-01-30T07:06:32;0.40;99.90
52481;DHT22;38393;52.404;13.532;2024-01-30T07:08:58;0.40;99.90
52481;DHT22;38393;52.404;13.532;2024-01-30T07:11:23;0.40;99.90
52481;DHT22;38393;52.404;13.532;2024-01-30T07:13:51;0.40;99.90
52481;DHT22;38393;52.404;13.532;2024-01-30T07:16:16;0.40;99.90
52481;DHT22;38393;52.404;13.532;2024-01-30T07:18:43;0.40;99.90
52481;DHT22;38393;52.404;13.532;2024-01-30T07:21:09;0.50;99.90
52481;DHT22;38393;52.404;13.532;2024-01-30T07:23:34;0.50;99.90
52481;DHT22;38393;52.404;13.532;2024-01-30T07:26:01;0.60;99.90
52481;DHT22;38393;52.404;13.532;2024-01-30T07:28:26;0.70;99.90
52481;DHT22;38393;52.404;13.532;2024-01-30T07:30:52;0.70;99.90
52481;DHT22;38393;52.404;13.532;2024-01-30T07:33:17;0.90;99.90
52481;DHT22;38393;52.404;13.532;2024-01-30T07:35:44;0.80;99.90
52481;DHT22;38393;52.404;13.532;2024-01-30T07:38:10;0.90;99.90
52481;DHT22;38393;52.404;13.532;2024-01-30T07:40:35;1.10;99.90
52481;DHT22;38393;52.404;13.532;2024-01-30T07:43:01;1.20;99.90
52481;DHT22;38393;52.404;13.532;2024-01-30T07:45:28;1.30;99.90
52481;DHT22;38393;52.404;13.532;2024-01-30T07:47:57;1.40;99.90
52481;DHT22;38393;52.404;13.532;2024-01-30T07:50:23;1.60;99.90
52481;DHT22;38393;52.404;13.532;2024-01-30T07:52:48;1.60;99.90
52481;DHT22;38393;52.404;13.532;2024-01-30T07:55:16;1.80;99.90
52481;DHT22;38393;52.404;13.532;2024-01-30T07:57:42;1.90;99.90
52481;DHT22;38393;52.404;13.532;2024-01-30T08:00:08;2.00;99.90
52481;DHT22;38393;52.404;13.532;2024-01-30T08:02:34;2.00;99.90
52481;DHT22;38393;52.404;13.532;2024-01-30T08:04:59;2.20;99.90
52481;DHT22;38393;52.404;13.532;2024-01-30T08:07:25;2.30;99.90
52481;DHT22;38393;52.404;13.532;2024-01-30T08:09:50;2.40;99.90
52481;DHT22;38393;52.404;13.532;2024-01-30T08:12:16;2.30;99.90
52481;DHT22;38393;52.404;13.532;2024-01-30T08:14:42;2.30;99.90
52481;DHT22;38393;52.404;13.532;2024-01-30T08:17:07;2.60;99.90
52481;DHT22;38393;52.404;13.532;2024-01-30T08:19:33;2.40;99.90
52481;DHT22;38393;52.404;13.532;2024-01-30T08:21:59;2.60;99.90
52481;DHT22;38393;52.404;13.532;2024-01-30T08:24:24;2.90;99.90
52481;DHT22;38393;52.404;13.532;2024-01-30T08:26:50;2.90;99.90
52481;DHT22;38393;52.404;13.532;2024-01-30T08:29:15;2.90;99.90
52481;DHT22;38393;52.404;13.532;2024-01-30T08:31:41;2.90;99.90
52481;DHT22;38393;52.404;13.532;2024-01-30T08:34:06;3.00;99.90
52481;DHT22;38393;52.404;13.532;2024-01-30T08:36:32;3.10;99.90
52481;DHT22;38393;52.404;13.532;2024-01-30T08:38:57;3.30;99.90
52481;DHT22;38393;52.404;13.532;2024-01-30T08:41:23;3.30;99.90
52481;DHT22;38393;52.404;13.532;2024-01-30T08:43:48;3.30;99.90
52481;DHT22;38393;52.404;13.532;2024-01-30T08:46:17;3.50;99.90
52481;DHT22;38393;52.404;13.532;2024-01-30T08:48:43;3.70;99.90
52481;DHT22;38393;52.404;13.532;2024-01-30T08:51:09;3.70;99.90
52481;DHT22;38393;52.404;13.532;2024-01-30T08:53:35;3.80;99.90
52481;DHT22;38393;52.404;13.532;2024-01-30T08:56:02;4.00;99.90
52481;DHT22;38393;52.404;13.532;2024-01-30T08:58:27;4.00;99.90
52481;DHT22;38393;52.404;13.532;2024-01-30T09:00:53;4.10;99.90
52481;DHT22;38393;52.404;13.532;2024-01-30T09:03:18;4.20;99.90
52481;DHT22;38393;52.404;13.532;2024-01-30T09:05:44;4.20;99.90
52481;DHT22;38393;52.404;13.532;2024-01-30T09:08:10;4.40;99.90
52481;DHT22;38393;52.404;13.532;2024-01-30T09:10:35;4.40;99.90
52481;DHT22;38393;52.404;13.532;2024-01-30T09:13:01;4.60;99.90
52481;DHT22;38393;52.404;13.532;2024-01-30T09:15:26;4.80;99.90
52481;DHT22;38393;52.404;13.532;2024-01-30T09:17:51;4.70;99.90
52481;DHT22;38393;52.404;13.532;2024-01-30T09:20:17;4.80;99.90
52481;DHT22;38393;52.404;13.532;2024-01-30T09:22:42;4.80;99.90
52481;DHT22;38393;52.404;13.532;2024-01-30T09:25:08;4.90;99.90
52481;DHT22;38393;52.404;13.532;2024-01-30T09:27:34;5.00;99.90
52481;DHT22;38393;52.404;13.532;2024-01-30T09:29:59;5.10;99.90
52481;DHT22;38393;52.404;13.532;2024-01-30T09:32:25;5.20;99.90
52481;DHT22;38393;52.404;13.532;2024-01-30T09:34:50;5.20;99.90
52481;DHT22;38393;52.404;13.532;2024-01-30T09:37:16;5.50;99.90
52481;DHT22;38393;52.404;13.532;2024-01-30T09:39:43;5.30;99.90
52481;DHT22;38393;52.404;13.532;2024-01-30T09:42:28;5.30;99.90
52481;DHT22;38393;52.404;13.532;2024-01-30T09:44:58;5.40;99.90
52481;DHT22;38393;52.404;13.532;2024-01-30T09:47:23;5.50;99.90
52481;DHT22;38393;52.404;13.532;2024-01-30T09:49:49;5.50;99.90
52481;DHT22;38393;52.404;13.532;2024-01-30T09:52:15;5.60;99.90
52481;DHT22;38393;52.404;13.532;2024-01-30T09:54:42;5.70;99.90
52481;DHT22;38393;52.404;13.532;2024-01-30T09:57:08;5.80;99.90
52481;DHT22;38393;52.404;13.532;2024-01-30T09:59:34;5.90;99.90
52481;DHT22;38393;52.404;13.532;2024-01-30T10:02:00;6.00;99.90
52481;DHT22;38393;52.404;13.532;2024-01-30T10:04:26;5.90;99.90
52481;DHT22;38393;52.404;13.532;2024-01-30T10:06:51;6.10;99.90
52481;DHT22;38393;52.404;13.532;2024-01-30T10:09:17;6.20;99.90
52481;DHT22;38393;52.404;13.532;2024-01-30T10:11:42;6.30;99.90
52481;DHT22;38393;52.404;13.532;2024-01-30T10:14:08;6.40;99.90
52481;DHT22;38393;52.404;13.532;2024-01-30T10:16:34;6.60;99.70
52481;DHT22;38393;52.404;13.532;2024-01-30T10:19:00;6.60;98.80
52481;DHT22;38393;52.404;13.532;2024-01-30T10:21:25;6.80;98.20
52481;DHT22;38393;52.404;13.532;2024-01-30T10:23:51;6.80;97.70
52481;DHT22;38393;52.404;13.532;2024-01-30T10:26:16;6.80;97.10
52481;DHT22;38393;52.404;13.532;2024-01-30T10:28:43;6.90;97.10
52481;DHT22;38393;52.404;13.532;2024-01-30T10:31:08;6.90;96.50
52481;DHT22;38393;52.404;13.532;2024-01-30T10:33:34;7.00;95.90
52481;DHT22;38393;52.404;13.532;2024-01-30T10:36:04;7.00;95.90
52481;DHT22;38393;52.404;13.532;2024-01-30T10:38:30;7.10;95.10
52481;DHT22;38393;52.404;13.532;2024-01-30T10:41:00;7.10;95.40
52481;DHT22;38393;52.404;13.532;2024-01-30T10:43:31;7.20;95.30
52481;DHT22;38393;52.404;13.532;2024-01-30T10:46:10;7.20;94.70
52481;DHT22;38393;52.404;13.532;2024-01-30T10:48:42;7.20;94.40
52481;DHT22;38393;52.404;13.532;2024-01-30T10:51:10;7.30;93.70
52481;DHT22;38393;52.404;13.532;2024-01-30T10:53:36;7.30;94.20
52481;DHT22;38393;52.404;13.532;2024-01-30T10:56:03;7.30;93.50
52481;DHT22;38393;52.404;13.532;2024-01-30T10:58:29;7.50;93.20
52481;DHT22;38393;52.404;13.532;2024-01-30T11:00:55;7.30;93.30
52481;DHT22;38393;52.404;13.532;2024-01-30T11:03:21;7.50;92.30
52481;DHT22;38393;52.404;13.532;2024-01-30T11:05:51;7.60;92.20
52481;DHT22;38393;52.404;13.532;2024-01-30T11:08:26;7.60;91.90
52481;DHT22;38393;52.404;13.532;2024-01-30T11:10:57;7.60;92.60
52481;DHT22;38393;52.404;13.532;2024-01-30T11:13:29;7.60;92.10
52481;DHT22;38393;52.404;13.532;2024-01-30T11:15:55;7.60;91.80
52481;DHT22;38393;52.404;13.532;2024-01-30T11:18:29;7.70;91.00
52481;DHT22;38393;52.404;13.532;2024-01-30T11:20:59;7.80;90.60
52481;DHT22;38393;52.404;13.532;2024-01-30T11:23:27;7.80;90.70
52481;DHT22;38393;52.404;13.532;2024-01-30T11:25:53;7.80;90.60
52481;DHT22;38393;52.404;13.532;2024-01-30T11:28:21;7.80;90.40
52481;DHT22;38393;52.404;13.532;2024-01-30T11:30:46;7.80;91.00
52481;DHT22;38393;52.404;13.532;2024-01-30T11:33:14;7.80;90.30
52481;DHT22;38393;52.404;13.532;2024-01-30T11:35:41;7.90;90.70
52481;DHT22;38393;52.404;13.532;2024-01-30T11:38:12;7.90;90.80
52481;DHT22;38393;52.404;13.532;2024-01-30T11:40:39;8.00;91.00
52481;DHT22;38393;52.404;13.532;2024-01-30T11:43:06;8.10;90.40
52481;DHT22;38393;52.404;13.532;2024-01-30T11:45:33;8.20;90.10
52481;DHT22;38393;52.404;13.532;2024-01-30T11:47:58;8.20;90.30
52481;DHT22;38393;52.404;13.532;2024-01-30T11:50:33;8.20;90.10
52481;DHT22;38393;52.404;13.532;2024-01-30T11:53:02;8.20;88.60
52481;DHT22;38393;52.404;13.532;2024-01-30T11:55:29;8.30;90.10
52481;DHT22;38393;52.404;13.532;2024-01-30T11:57:55;8.40;90.50
52481;DHT22;38393;52.404;13.532;2024-01-30T12:00:21;8.50;88.90
52481;DHT22;38393;52.404;13.532;2024-01-30T12:02:53;8.60;87.80
52481;DHT22;38393;52.404;13.532;2024-01-30T12:05:23;8.70;88.20
52481;DHT22;38393;52.404;13.532;2024-01-30T12:07:49;8.60;89.10
52481;DHT22;38393;52.404;13.532;2024-01-30T12:10:15;8.60;88.80
52481;DHT22;38393;52.404;13.532;2024-01-30T12:12:48;8.60;88.80
52481;DHT22;38393;52.404;13.532;2024-01-30T12:15:15;8.80;89.30
52481;DHT22;38393;52.404;13.532;2024-01-30T12:17:41;8.80;89.80
52481;DHT22;38393;52.404;13.532;2024-01-30T12:20:11;8.80;88.90
52481;DHT22;38393;52.404;13.532;2024-01-30T12:22:41;8.80;88.40
52481;DHT22;38393;52.404;13.532;2024-01-30T12:25:11;8.80;88.90
52481;DHT22;38393;52.404;13.532;2024-01-30T12:27:37;8.80;89.30
52481;DHT22;38393;52.404;13.532;2024-01-30T12:30:07;8.80;89.30
52481;DHT22;38393;52.404;13.532;2024-01-30T12:32:35;8.80;89.90
52481;DHT22;38393;52.404;13.532;2024-01-30T12:35:01;8.80;90.10
52481;DHT22;38393;52.404;13.532;2024-01-30T12:37:27;8.80;90.20
52481;DHT22;38393;52.404;13.532;2024-01-30T12:39:52;8.80;89.40
52481;DHT22;38393;52.404;13.532;2024-01-30T12:42:20;8.80;90.20
52481;DHT22;38393;52.404;13.532;2024-01-30T12:44:47;8.90;90.60
52481;DHT22;38393;52.404;13.532;2024-01-30T12:47:13;8.90;90.50
52481;DHT22;38393;52.404;13.532;2024-01-30T12:49:38;9.10;90.80
52481;DHT22;38393;52.404;13.532;2024-01-30T12:52:04;8.90;90.40
52481;DHT22;38393;52.404;13.532;2024-01-30T12:54:29;8.90;90.30
52481;DHT22;38393;52.404;13.532;2024-01-30T12:56:55;9.00;90.50
52481;DHT22;38393;52.404;13.532;2024-01-30T12:59:21;9.00;90.00
52481;DHT22;38393;52.404;13.532;2024-01-30T13:01:47;8.90;90.40
52481;DHT22;38393;52.404;13.532;2024-01-30T13:04:13;9.00;90.30
52481;DHT22;38393;52.404;13.532;2024-01-30T13:06:38;9.00;90.50
52481;DHT22;38393;52.404;13.532;2024-01-30T13:09:03;9.00;90.80
52481;DHT22;38393;52.404;13.532;2024-01-30T13:11:31;9.00;90.30
52481;DHT22;38393;52.404;13.532;2024-01-30T13:13:57;9.10;90.90
52481;DHT22;38393;52.404;13.532;2024-01-30T13:16:23;9.10;90.80
52481;DHT22;38393;52.404;13.532;2024-01-30T13:18:48;9.00;91.00
52481;DHT22;38393;52.404;13.532;2024-01-30T13:21:14;9.10;90.60
52481;DHT22;38393;52.404;13.532;2024-01-30T13:23:39;9.00;91.00
52481;DHT22;38393;52.404;13.532;2024-01-30T13:26:05;9.00;91.10
52481;DHT22;38393;52.404;13.532;2024-01-30T13:28:31;8.90;91.10
52481;DHT22;38393;52.404;13.532;2024-01-30T13:30:57;9.00;91.20
52481;DHT22;38393;52.404;13.532;2024-01-30T13:33:22;8.90;91.00
52481;DHT22;38393;52.404;13.532;2024-01-30T13:35:48;8.90;91.00
52481;DHT22;38393;52.404;13.532;2024-01-30T13:38:13;9.00;91.20
52481;DHT22;38393;52.404;13.532;2024-01-30T13:40:40;9.10;91.80
52481;DHT22;38393;52.404;13.532;2024-01-30T13:43:05;8.90;91.50
52481;DHT22;38393;52.404;13.532;2024-01-30T13:45:31;9.10;91.70
52481;DHT22;38393;52.404;13.532;2024-01-30T13:47:56;9.00;91.20
52481;DHT22;38393;52.404;13.532;2024-01-30T13:50:22;9.10;91.10
52481;DHT22;38393;52.404;13.532;2024-01-30T13:52:48;8.90;91.50
52481;DHT22;38393;52.404;13.532;2024-01-30T13:55:13;8.80;91.60
52481;DHT22;38393;52.404;13.532;2024-01-30T13:57:39;8.90;91.80
52481;DHT22;38393;52.404;13.532;2024-01-30T14:00:05;8.90;91.60
52481;DHT22;38393;52.404;13.532;2024-01-30T14:02:31;8.90;92.30
52481;DHT22;38393;52.404;13.532;2024-01-30T14:04:57;8.70;92.80
52481;DHT22;38393;52.404;13.532;2024-01-30T14:07:22;8.80;92.50
52481;DHT22;38393;52.404;13.532;2024-01-30T14:09:48;8.80;92.80
52481;DHT22;38393;52.404;13.532;2024-01-30T14:12:14;8.80;93.10
52481;DHT22;38393;52.404;13.532;2024-01-30T14:14:40;8.60;93.40
52481;DHT22;38393;52.404;13.532;2024-01-30T14:17:06;8.80;92.70
52481;DHT22;38393;52.404;13.532;2024-01-30T14:19:35;8.90;92.60
52481;DHT22;38393;52.404;13.532;2024-01-30T14:22:04;8.90;92.10
52481;DHT22;38393;52.404;13.532;2024-01-30T14:24:29;8.90;91.90
52481;DHT22;38393;52.404;13.532;2024-01-30T14:26:55;8.70;92.40
52481;DHT22;38393;52.404;13.532;2024-01-30T14:29:20;8.80;92.20
52481;DHT22;38393;52.404;13.532;2024-01-30T14:31:46;8.70;92.20
52481;DHT22;38393;52.404;13.532;2024-01-30T14:34:11;8.70;92.50
52481;DHT22;38393;52.404;13.532;2024-01-30T14:36:38;8.60;92.50
52481;DHT22;38393;52.404;13.532;2024-01-30T14:39:03;8.70;92.20
52481;DHT22;38393;52.404;13.532;2024-01-30T14:41:29;8.60;92.40
52481;DHT22;38393;52.404;13.532;2024-01-30T14:43:55;8.60;92.20
52481;DHT22;38393;52.404;13.532;2024-01-30T14:46:21;8.50;92.60
52481;DHT22;38393;52.404;13.532;2024-01-30T14:48:47;8.50;92.50
52481;DHT22;38393;52.404;13.532;2024-01-30T14:51:12;8.50;92.40
52481;DHT22;38393;52.404;13.532;2024-01-30T14:53:39;8.50;92.50
52481;DHT22;38393;52.404;13.532;2024-01-30T14:56:05;8.40;92.90
52481;DHT22;38393;52.404;13.532;2024-01-30T14:58:30;8.30;93.10
52481;DHT22;38393;52.404;13.532;2024-01-30T15:00:56;8.30;93.20
52481;DHT22;38393;52.404;13.532;2024-01-30T15:03:21;8.20;93.70
52481;DHT22;38393;52.404;13.532;2024-01-30T15:05:47;8.00;94.10
52481;DHT22;38393;52.404;13.532;2024-01-30T15:08:12;8.00;94.50
52481;DHT22;38393;52.404;13.532;2024-01-30T15:10:38;7.90;95.10
52481;DHT22;38393;52.404;13.532;2024-01-30T15:13:03;7.90;95.20
52481;DHT22;38393;52.404;13.532;2024-01-30T15:15:29;8.00;95.00
52481;DHT22;38393;52.404;13.532;2024-01-30T15:17:56;7.80;95.60
52481;DHT22;38393;52.404;13.532;2024-01-30T15:20:21;7.70;95.70
52481;DHT22;38393;52.404;13.532;2024-01-30T15:22:47;7.60;96.40